Terminal Aerodrome Forecast
Issued by NWS Shreveport, LA

Home | Current Version | Previous Version | Text Only | Print | Product List | Glossary On
Versions: 1 2 3 4 5 6 7 8 9 10 11 12 13 14 15 16 17
000
FTUS44 KSHV 310500
TAFMLU
TAF
KMLU 310525Z 3106/0106 19004KT P6SM SCT015
      TEMPO 3106/3109 BKN003 BKN015
     FM310900 18004KT 2SM BR BKN003 OVC008
      TEMPO 3109/3113 1/2SM FG BKN001
     FM311600 20007KT P6SM VCSH BKN015
     FM311800 20008KT P6SM BKN150
     FM010000 17005KT P6SM SCT250=

USA.gov is the U.S. government's official web portal to all federal, state and local government web resources and services.